Hart Lot, New York
Current Conditions -  °F | °C
As of 9:54 AM on Monday 22 Dec 2014 (Local Time) from KSYR Reporting Station
Overcast Overcast  
Wind Chill: 26°   Ceiling: 2400
Heat Index: 32°   Visibility: 7mi
Dew Point: 26°   Wind: 6mph
Humidity: 79%   Direction: 80°E
Pressure: 30.29"   Gusts: NA
Location:  43.0229°N, 76.4237°W
Report Text: KSYR 221454Z 08005KT 7SM OVC024 00/M03 A3029 RMK AO2 SLP258 T00001033 51001 $
Loading
Personal Weather Stations






























Interactive Weather Map New forecast layout! Learn more

10-Day Weather Forecast

Advertisements
Track Severe Weather on mobile